sensor_id;sensor_type;location;lat;lon;timestamp;pressure;altitude;pressure_sealevel;temperature;humidity
21594;BME280;10959;51.328;7.322;2022-11-02T00:01:12;98819.53;;;14.35;64.11
21594;BME280;10959;51.328;7.322;2022-11-02T00:03:39;98808.69;;;14.35;64.30
21594;BME280;10959;51.328;7.322;2022-11-02T00:06:06;98814.47;;;14.44;64.34
21594;BME280;10959;51.328;7.322;2022-11-02T00:08:32;98822.19;;;14.50;63.91
21594;BME280;10959;51.328;7.322;2022-11-02T00:10:59;98804.75;;;14.54;63.91
21594;BME280;10959;51.328;7.322;2022-11-02T00:13:25;98810.41;;;14.51;64.02
21594;BME280;10959;51.328;7.322;2022-11-02T00:15:53;98812.78;;;14.56;63.72
21594;BME280;10959;51.328;7.322;2022-11-02T00:18:20;98805.94;;;14.50;63.92
21594;BME280;10959;51.328;7.322;2022-11-02T00:20:47;98788.72;;;14.51;63.83
21594;BME280;10959;51.328;7.322;2022-11-02T00:23:14;98799.75;;;14.48;64.00
21594;BME280;10959;51.328;7.322;2022-11-02T00:25:44;98795.88;;;14.52;63.85
21594;BME280;10959;51.328;7.322;2022-11-02T00:28:12;98802.63;;;14.59;63.79
21594;BME280;10959;51.328;7.322;2022-11-02T00:30:39;98797.59;;;14.53;63.86
21594;BME280;10959;51.328;7.322;2022-11-02T00:33:06;98788.72;;;14.51;64.15
21594;BME280;10959;51.328;7.322;2022-11-02T00:35:33;98800.88;;;14.58;64.04
21594;BME280;10959;51.328;7.322;2022-11-02T00:38:01;98797.03;;;14.62;64.19
21594;BME280;10959;51.328;7.322;2022-11-02T00:40:27;98795.25;;;14.61;64.57
21594;BME280;10959;51.328;7.322;2022-11-02T00:42:55;98799.03;;;14.59;65.11
21594;BME280;10959;51.328;7.322;2022-11-02T00:45:21;98804.75;;;14.54;66.01
21594;BME280;10959;51.328;7.322;2022-11-02T00:47:48;98789.13;;;14.45;66.66
21594;BME280;10959;51.328;7.322;2022-11-02T00:50:16;98792.38;;;14.50;66.74
21594;BME280;10959;51.328;7.322;2022-11-02T00:52:43;98785.31;;;14.47;67.03
21594;BME280;10959;51.328;7.322;2022-11-02T00:55:10;98775.91;;;14.53;66.91
21594;BME280;10959;51.328;7.322;2022-11-02T00:57:37;98770.91;;;14.47;66.86
21594;BME280;10959;51.328;7.322;2022-11-02T01:00:06;98786.75;;;14.53;66.54
21594;BME280;10959;51.328;7.322;2022-11-02T01:02:33;98789.56;;;14.51;66.80
21594;BME280;10959;51.328;7.322;2022-11-02T01:04:59;98792.13;;;14.40;67.03
21594;BME280;10959;51.328;7.322;2022-11-02T01:07:28;98792.69;;;14.45;66.43
21594;BME280;10959;51.328;7.322;2022-11-02T01:09:54;98798.88;;;14.47;66.65
21594;BME280;10959;51.328;7.322;2022-11-02T01:12:21;98794.13;;;14.51;66.22
21594;BME280;10959;51.328;7.322;2022-11-02T01:14:48;98789.13;;;14.45;66.68
21594;BME280;10959;51.328;7.322;2022-11-02T01:17:16;98797.81;;;14.50;66.48
21594;BME280;10959;51.328;7.322;2022-11-02T01:19:43;98806.25;;;14.45;66.62
21594;BME280;10959;51.328;7.322;2022-11-02T01:22:10;98802.38;;;14.49;66.49
21594;BME280;10959;51.328;7.322;2022-11-02T01:24:38;98798.19;;;14.58;66.12
21594;BME280;10959;51.328;7.322;2022-11-02T01:27:04;98783.09;;;14.54;66.59
21594;BME280;10959;51.328;7.322;2022-11-02T01:29:31;98784.84;;;14.55;66.03
21594;BME280;10959;51.328;7.322;2022-11-02T01:31:57;98790.91;;;14.59;66.01
21594;BME280;10959;51.328;7.322;2022-11-02T01:34:23;98794.41;;;14.61;66.07
21594;BME280;10959;51.328;7.322;2022-11-02T01:36:50;98795.75;;;14.68;65.87
21594;BME280;10959;51.328;7.322;2022-11-02T01:39:16;98801.28;;;14.66;65.88
21594;BME280;10959;51.328;7.322;2022-11-02T01:41:44;98794.13;;;14.65;65.80
21594;BME280;10959;51.328;7.322;2022-11-02T01:44:29;98796.47;;;14.43;66.11
21594;BME280;10959;51.328;7.322;2022-11-02T01:46:59;98792.66;;;14.60;65.95
21594;BME280;10959;51.328;7.322;2022-11-02T01:49:27;98793.50;;;14.60;65.94
21594;BME280;10959;51.328;7.322;2022-11-02T01:52:02;98803.59;;;14.58;66.05
21594;BME280;10959;51.328;7.322;2022-11-02T01:54:35;98802.53;;;14.61;65.72
21594;BME280;10959;51.328;7.322;2022-11-02T01:57:05;98790.34;;;14.68;65.50
21594;BME280;10959;51.328;7.322;2022-11-02T01:59:36;98786.47;;;14.72;65.69
21594;BME280;10959;51.328;7.322;2022-11-02T02:02:09;98789.47;;;14.67;65.54
21594;BME280;10959;51.328;7.322;2022-11-02T02:04:39;98792.41;;;14.77;65.40
21594;BME280;10959;51.328;7.322;2022-11-02T02:07:06;98790.59;;;14.78;65.49
21594;BME280;10959;51.328;7.322;2022-11-02T02:09:33;98797.56;;;14.82;65.50
21594;BME280;10959;51.328;7.322;2022-11-02T02:12:00;98783.78;;;14.85;65.23
21594;BME280;10959;51.328;7.322;2022-11-02T02:14:28;98788.84;;;14.77;65.24
21594;BME280;10959;51.328;7.322;2022-11-02T02:17:17;98795.47;;;14.58;65.73
21594;BME280;10959;51.328;7.322;2022-11-02T02:19:50;98793.53;;;14.75;65.61
21594;BME280;10959;51.328;7.322;2022-11-02T02:22:42;98781.34;;;14.53;65.75
21594;BME280;10959;51.328;7.322;2022-11-02T02:25:25;98784.63;;;14.58;65.60
21594;BME280;10959;51.328;7.322;2022-11-02T02:28:08;98786.94;;;14.64;65.43
21594;BME280;10959;51.328;7.322;2022-11-02T02:30:46;98777.75;;;14.67;65.35
21594;BME280;10959;51.328;7.322;2022-11-02T02:33:19;98783.84;;;14.71;65.39
21594;BME280;10959;51.328;7.322;2022-11-02T02:35:54;98790.56;;;14.65;65.31
21594;BME280;10959;51.328;7.322;2022-11-02T02:38:27;98784.06;;;14.67;65.34
21594;BME280;10959;51.328;7.322;2022-11-02T02:40:57;98780.81;;;14.75;65.43
21594;BME280;10959;51.328;7.322;2022-11-02T02:43:31;98783.06;;;14.68;65.34
21594;BME280;10959;51.328;7.322;2022-11-02T02:46:04;98786.66;;;14.69;65.60
21594;BME280;10959;51.328;7.322;2022-11-02T02:48:35;98790.81;;;14.75;65.42
21594;BME280;10959;51.328;7.322;2022-11-02T02:51:06;98790.81;;;14.75;65.13
21594;BME280;10959;51.328;7.322;2022-11-02T02:53:37;98783.84;;;14.71;65.59
21594;BME280;10959;51.328;7.322;2022-11-02T02:56:09;98797.09;;;14.75;65.55
21594;BME280;10959;51.328;7.322;2022-11-02T02:58:41;98788.63;;;14.80;65.36
21594;BME280;10959;51.328;7.322;2022-11-02T03:01:10;98778.00;;;14.77;65.32
21594;BME280;10959;51.328;7.322;2022-11-02T03:03:39;98787.88;;;14.78;65.38
21594;BME280;10959;51.328;7.322;2022-11-02T03:06:14;98798.38;;;14.69;65.12
21594;BME280;10959;51.328;7.322;2022-11-02T03:08:47;98793.38;;;14.63;65.42
21594;BME280;10959;51.328;7.322;2022-11-02T03:11:18;98794.00;;;14.67;65.56
21594;BME280;10959;51.328;7.322;2022-11-02T03:14:00;98794.88;;;14.53;65.80
21594;BME280;10959;51.328;7.322;2022-11-02T03:16:42;98788.09;;;14.60;65.48
21594;BME280;10959;51.328;7.322;2022-11-02T03:19:16;98791.19;;;14.68;65.54
21594;BME280;10959;51.328;7.322;2022-11-02T03:21:47;98794.69;;;14.71;64.89
21594;BME280;10959;51.328;7.322;2022-11-02T03:24:19;98791.41;;;14.65;65.72
21594;BME280;10959;51.328;7.322;2022-11-02T03:26:52;98791.41;;;14.65;65.73
21594;BME280;10959;51.328;7.322;2022-11-02T03:29:27;98807.28;;;14.57;65.65
21594;BME280;10959;51.328;7.322;2022-11-02T03:31:59;98809.63;;;14.63;65.77
21594;BME280;10959;51.328;7.322;2022-11-02T03:34:33;98809.31;;;14.54;65.83
21594;BME280;10959;51.328;7.322;2022-11-02T03:37:07;98825.88;;;14.63;65.63
21594;BME280;10959;51.328;7.322;2022-11-02T03:39:40;98821.31;;;14.64;65.57
21594;BME280;10959;51.328;7.322;2022-11-02T03:42:10;98824.53;;;14.56;65.87
21594;BME280;10959;51.328;7.322;2022-11-02T03:44:40;98834.25;;;14.59;65.71
21594;BME280;10959;51.328;7.322;2022-11-02T03:47:10;98830.81;;;14.57;65.83
21594;BME280;10959;51.328;7.322;2022-11-02T03:49:39;98829.34;;;14.65;65.53
21594;BME280;10959;51.328;7.322;2022-11-02T03:52:10;98830.59;;;14.60;65.47
21594;BME280;10959;51.328;7.322;2022-11-02T03:54:42;98824.69;;;14.53;65.78
21594;BME280;10959;51.328;7.322;2022-11-02T03:57:17;98831.31;;;14.49;65.68
21594;BME280;10959;51.328;7.322;2022-11-02T03:59:45;98837.06;;;14.57;65.80
21594;BME280;10959;51.328;7.322;2022-11-02T04:02:13;98845.81;;;14.62;65.83
21594;BME280;10959;51.328;7.322;2022-11-02T04:04:47;98847.75;;;14.46;65.97
21594;BME280;10959;51.328;7.322;2022-11-02T04:07:16;98837.88;;;14.59;66.07
21594;BME280;10959;51.328;7.322;2022-11-02T04:09:44;98844.25;;;14.58;66.00
21594;BME280;10959;51.328;7.322;2022-11-02T04:12:11;98846.75;;;14.61;65.77
21594;BME280;10959;51.328;7.322;2022-11-02T04:14:56;98858.59;;;14.46;65.96
21594;BME280;10959;51.328;7.322;2022-11-02T04:17:25;98864.38;;;14.54;66.16
21594;BME280;10959;51.328;7.322;2022-11-02T04:20:24;98859.16;;;14.51;65.94
21594;BME280;10959;51.328;7.322;2022-11-02T04:22:50;98855.28;;;14.55;66.04
21594;BME280;10959;51.328;7.322;2022-11-02T04:25:34;98863.63;;;14.52;66.01
21594;BME280;10959;51.328;7.322;2022-11-02T04:28:06;98878.53;;;14.45;65.43
21594;BME280;10959;51.328;7.322;2022-11-02T04:30:34;98859.16;;;14.51;65.66
21594;BME280;10959;51.328;7.322;2022-11-02T04:33:00;98866.53;;;14.49;65.65
21594;BME280;10959;51.328;7.322;2022-11-02T04:35:44;98885.13;;;14.41;65.54
21594;BME280;10959;51.328;7.322;2022-11-02T04:38:11;98874.94;;;14.44;65.72
21594;BME280;10959;51.328;7.322;2022-11-02T04:40:55;98883.84;;;14.46;65.28
21594;BME280;10959;51.328;7.322;2022-11-02T04:43:35;98882.97;;;14.46;65.22
21594;BME280;10959;51.328;7.322;2022-11-02T04:46:03;98897.31;;;14.48;65.12
21594;BME280;10959;51.328;7.322;2022-11-02T04:48:30;98895.34;;;14.50;65.19
21594;BME280;10959;51.328;7.322;2022-11-02T04:50:56;98897.84;;;14.53;65.00
21594;BME280;10959;51.328;7.322;2022-11-02T04:53:23;98902.53;;;14.51;65.07
21594;BME280;10959;51.328;7.322;2022-11-02T04:55:49;98897.09;;;14.51;65.16
21594;BME280;10959;51.328;7.322;2022-11-02T04:58:16;98893.63;;;14.49;65.06
21594;BME280;10959;51.328;7.322;2022-11-02T05:00:42;98900.13;;;14.46;65.34
21594;BME280;10959;51.328;7.322;2022-11-02T05:03:10;98899.22;;;14.46;65.06
21594;BME280;10959;51.328;7.322;2022-11-02T05:05:36;98900.97;;;14.47;65.36
21594;BME280;10959;51.328;7.322;2022-11-02T05:08:03;98904.63;;;14.46;65.54
21594;BME280;10959;51.328;7.322;2022-11-02T05:10:30;98902.03;;;14.44;65.67
21594;BME280;10959;51.328;7.322;2022-11-02T05:12:56;98905.63;;;14.45;65.65
21594;BME280;10959;51.328;7.322;2022-11-02T05:15:23;98920.03;;;14.45;65.71
21594;BME280;10959;51.328;7.322;2022-11-02T05:17:49;98908.50;;;14.42;66.03
21594;BME280;10959;51.328;7.322;2022-11-02T05:20:17;98911.31;;;14.40;66.06
21594;BME280;10959;51.328;7.322;2022-11-02T05:22:44;98912.22;;;14.41;66.07
21594;BME280;10959;51.328;7.322;2022-11-02T05:25:11;98919.34;;;14.42;66.21
21594;BME280;10959;51.328;7.322;2022-11-02T05:27:37;98921.69;;;14.33;66.28
21594;BME280;10959;51.328;7.322;2022-11-02T05:30:05;98937.06;;;14.33;66.17
21594;BME280;10959;51.328;7.322;2022-11-02T05:32:31;98928.66;;;14.38;66.16
21594;BME280;10959;51.328;7.322;2022-11-02T05:34:58;98923.25;;;14.38;66.20
21594;BME280;10959;51.328;7.322;2022-11-02T05:37:26;98924.97;;;14.39;66.05
21594;BME280;10959;51.328;7.322;2022-11-02T05:39:52;98932.34;;;14.37;66.07
21594;BME280;10959;51.328;7.322;2022-11-02T05:42:19;98933.19;;;14.37;66.01
21594;BME280;10959;51.328;7.322;2022-11-02T05:44:46;98936.97;;;14.34;66.02
21594;BME280;10959;51.328;7.322;2022-11-02T05:47:12;98937.34;;;14.43;66.24
21594;BME280;10959;51.328;7.322;2022-11-02T05:49:39;98941.22;;;14.39;66.12
21594;BME280;10959;51.328;7.322;2022-11-02T05:52:05;98950.13;;;14.41;65.88
21594;BME280;10959;51.328;7.322;2022-11-02T05:54:33;98947.53;;;14.39;66.05
21594;BME280;10959;51.328;7.322;2022-11-02T05:57:00;98946.84;;;14.35;65.99
21594;BME280;10959;51.328;7.322;2022-11-02T05:59:26;98937.84;;;14.35;66.17
21594;BME280;10959;51.328;7.322;2022-11-02T06:01:52;98949.44;;;14.37;66.18
21594;BME280;10959;51.328;7.322;2022-11-02T06:04:19;98956.72;;;14.37;66.04
21594;BME280;10959;51.328;7.322;2022-11-02T06:06:47;98960.97;;;14.41;65.86
21594;BME280;10959;51.328;7.322;2022-11-02T06:09:13;98957.28;;;14.42;65.90
21594;BME280;10959;51.328;7.322;2022-11-02T06:11:41;98978.00;;;14.43;65.68
21594;BME280;10959;51.328;7.322;2022-11-02T06:14:08;98969.00;;;14.42;65.54
21594;BME280;10959;51.328;7.322;2022-11-02T06:16:34;98975.28;;;14.43;65.65
21594;BME280;10959;51.328;7.322;2022-11-02T06:19:01;98975.47;;;14.40;65.34
21594;BME280;10959;51.328;7.322;2022-11-02T06:21:27;98985.25;;;14.42;65.31
21594;BME280;10959;51.328;7.322;2022-11-02T06:23:54;98985.66;;;14.36;65.05
21594;BME280;10959;51.328;7.322;2022-11-02T06:26:20;98997.91;;;14.27;65.20
21594;BME280;10959;51.328;7.322;2022-11-02T06:28:48;98999.25;;;14.34;65.29
21594;BME280;10959;51.328;7.322;2022-11-02T06:31:14;98986.91;;;14.30;65.14
21594;BME280;10959;51.328;7.322;2022-11-02T06:33:42;98988.81;;;14.28;65.24
21594;BME280;10959;51.328;7.322;2022-11-02T06:36:09;98993.09;;;14.32;65.05
21594;BME280;10959;51.328;7.322;2022-11-02T06:38:36;99001.22;;;14.32;64.96
21594;BME280;10959;51.328;7.322;2022-11-02T06:41:04;99006.63;;;14.32;64.90
21594;BME280;10959;51.328;7.322;2022-11-02T06:43:31;99015.72;;;14.31;64.87
21594;BME280;10959;51.328;7.322;2022-11-02T06:46:02;99013.69;;;14.21;64.80
21594;BME280;10959;51.328;7.322;2022-11-02T06:48:29;99021.91;;;14.19;65.17
21594;BME280;10959;51.328;7.322;2022-11-02T06:50:56;99021.31;;;14.14;64.93
21594;BME280;10959;51.328;7.322;2022-11-02T06:53:23;99027.47;;;14.16;65.16
21594;BME280;10959;51.328;7.322;2022-11-02T06:55:51;99029.63;;;14.11;64.96
21594;BME280;10959;51.328;7.322;2022-11-02T06:58:18;99040.06;;;14.17;65.09
21594;BME280;10959;51.328;7.322;2022-11-02T07:00:44;99042.88;;;14.15;65.02
21594;BME280;10959;51.328;7.322;2022-11-02T07:03:12;99039.13;;;14.18;64.95
21594;BME280;10959;51.328;7.322;2022-11-02T07:05:39;99050.72;;;14.20;65.06
21594;BME280;10959;51.328;7.322;2022-11-02T07:08:07;99050.56;;;14.23;64.82
21594;BME280;10959;51.328;7.322;2022-11-02T07:10:33;99066.41;;;14.29;64.81
21594;BME280;10959;51.328;7.322;2022-11-02T07:13:00;99072.41;;;14.34;64.94
21594;BME280;10959;51.328;7.322;2022-11-02T07:15:27;99070.78;;;14.32;64.94
21594;BME280;10959;51.328;7.322;2022-11-02T07:17:53;99082.47;;;14.32;64.91
21594;BME280;10959;51.328;7.322;2022-11-02T07:20:22;99091.09;;;14.25;65.22
21594;BME280;10959;51.328;7.322;2022-11-02T07:22:52;99092.31;;;14.19;65.25
21594;BME280;10959;51.328;7.322;2022-11-02T07:25:19;99077.44;;;14.26;65.18
21594;BME280;10959;51.328;7.322;2022-11-02T07:27:46;99101.16;;;14.37;64.83
21594;BME280;10959;51.328;7.322;2022-11-02T07:30:12;99112.88;;;14.38;64.89
21594;BME280;10959;51.328;7.322;2022-11-02T07:32:39;99106.00;;;14.32;65.02
21594;BME280;10959;51.328;7.322;2022-11-02T07:35:07;99114.38;;;14.27;65.04
21594;BME280;10959;51.328;7.322;2022-11-02T07:37:35;99106.25;;;14.27;65.16
21594;BME280;10959;51.328;7.322;2022-11-02T07:40:03;99108.38;;;14.22;64.89
21594;BME280;10959;51.328;7.322;2022-11-02T07:42:30;99117.28;;;14.24;64.78
21594;BME280;10959;51.328;7.322;2022-11-02T07:44:56;99119.41;;;14.19;64.80
21594;BME280;10959;51.328;7.322;2022-11-02T07:47:24;99125.69;;;14.20;64.95
21594;BME280;10959;51.328;7.322;2022-11-02T07:49:50;99125.13;;;14.29;64.86
21594;BME280;10959;51.328;7.322;2022-11-02T07:52:17;99143.84;;;14.33;64.89
21594;BME280;10959;51.328;7.322;2022-11-02T07:54:44;99134.38;;;14.41;64.96
21594;BME280;10959;51.328;7.322;2022-11-02T07:57:11;99154.09;;;14.43;64.98
21594;BME280;10959;51.328;7.322;2022-11-02T07:59:37;99151.28;;;14.44;64.50
21594;BME280;10959;51.328;7.322;2022-11-02T08:02:04;99164.09;;;14.42;64.62
21594;BME280;10959;51.328;7.322;2022-11-02T08:04:30;99168.59;;;14.42;64.56
21594;BME280;10959;51.328;7.322;2022-11-02T08:06:58;99174.78;;;14.29;63.65
21594;BME280;10959;51.328;7.322;2022-11-02T08:09:24;99170.94;;;14.33;64.26
21594;BME280;10959;51.328;7.322;2022-11-02T08:11:55;99176.69;;;14.27;64.13
21594;BME280;10959;51.328;7.322;2022-11-02T08:14:21;99181.19;;;14.43;64.16
21594;BME280;10959;51.328;7.322;2022-11-02T08:16:50;99176.97;;;14.53;64.23
21594;BME280;10959;51.328;7.322;2022-11-02T08:19:16;99187.81;;;14.53;63.94
21594;BME280;10959;51.328;7.322;2022-11-02T08:21:43;99190.34;;;14.56;64.08
21594;BME280;10959;51.328;7.322;2022-11-02T08:24:09;99188.16;;;14.63;63.83
21594;BME280;10959;51.328;7.322;2022-11-02T08:26:36;99191.13;;;14.58;63.47
21594;BME280;10959;51.328;7.322;2022-11-02T08:29:04;99186.84;;;14.54;63.59
21594;BME280;10959;51.328;7.322;2022-11-02T08:31:30;99183.19;;;14.55;63.93
21594;BME280;10959;51.328;7.322;2022-11-02T08:33:57;99190.78;;;14.64;63.90
21594;BME280;10959;51.328;7.322;2022-11-02T08:36:23;99195.84;;;14.71;63.99
21594;BME280;10959;51.328;7.322;2022-11-02T08:38:50;99209.41;;;14.71;63.69
21594;BME280;10959;51.328;7.322;2022-11-02T08:41:18;99205.31;;;14.63;63.36
21594;BME280;10959;51.328;7.322;2022-11-02T08:43:44;99201.63;;;14.64;63.54
21594;BME280;10959;51.328;7.322;2022-11-02T08:46:12;99208.13;;;14.62;62.79
21594;BME280;10959;51.328;7.322;2022-11-02T08:48:39;99198.16;;;14.62;62.74
21594;BME280;10959;51.328;7.322;2022-11-02T08:51:05;99207.75;;;14.52;62.65
21594;BME280;10959;51.328;7.322;2022-11-02T08:53:33;99215.19;;;14.64;63.18
21594;BME280;10959;51.328;7.322;2022-11-02T08:55:59;99219.09;;;14.75;62.73
21594;BME280;10959;51.328;7.322;2022-11-02T08:58:26;99207.38;;;14.74;63.10
21594;BME280;10959;51.328;7.322;2022-11-02T09:00:53;99210.16;;;14.73;63.17
21594;BME280;10959;51.328;7.322;2022-11-02T09:03:21;99209.06;;;14.91;62.69
21594;BME280;10959;51.328;7.322;2022-11-02T09:05:49;99218.47;;;15.00;62.78
21594;BME280;10959;51.328;7.322;2022-11-02T09:08:17;99220.53;;;15.11;61.94
21594;BME280;10959;51.328;7.322;2022-11-02T09:10:45;99215.22;;;15.24;61.99
21594;BME280;10959;51.328;7.322;2022-11-02T09:13:14;99226.72;;;15.27;62.23
21594;BME280;10959;51.328;7.322;2022-11-02T09:15:42;99230.59;;;15.23;60.27
21594;BME280;10959;51.328;7.322;2022-11-02T09:18:09;99224.72;;;15.31;60.85
21594;BME280;10959;51.328;7.322;2022-11-02T09:20:37;99242.66;;;15.33;60.67
21594;BME280;10959;51.328;7.322;2022-11-02T09:23:03;99241.00;;;15.31;60.37
21594;BME280;10959;51.328;7.322;2022-11-02T09:25:30;99235.66;;;15.29;60.58
21594;BME280;10959;51.328;7.322;2022-11-02T09:27:57;99239.72;;;15.22;60.38
21594;BME280;10959;51.328;7.322;2022-11-02T09:30:24;99247.56;;;15.27;60.42
21594;BME280;10959;51.328;7.322;2022-11-02T09:32:53;99248.25;;;15.30;60.07
21594;BME280;10959;51.328;7.322;2022-11-02T09:35:20;99237.28;;;15.17;60.03
21594;BME280;10959;51.328;7.322;2022-11-02T09:37:49;99244.84;;;15.12;59.75
21594;BME280;10959;51.328;7.322;2022-11-02T09:40:19;99251.91;;;15.00;59.86
21594;BME280;10959;51.328;7.322;2022-11-02T09:42:57;99258.69;;;15.08;60.43
21594;BME280;10959;51.328;7.322;2022-11-02T09:45:30;99255.06;;;15.37;60.19
21594;BME280;10959;51.328;7.322;2022-11-02T09:48:02;99264.56;;;15.59;60.17
21594;BME280;10959;51.328;7.322;2022-11-02T09:50:39;99261.56;;;15.49;59.39
21594;BME280;10959;51.328;7.322;2022-11-02T09:53:09;99258.84;;;15.49;58.62
21594;BME280;10959;51.328;7.322;2022-11-02T09:55:41;99272.88;;;15.56;59.64
21594;BME280;10959;51.328;7.322;2022-11-02T09:58:14;99281.81;;;15.72;59.63
21594;BME280;10959;51.328;7.322;2022-11-02T10:00:44;99272.91;;;15.70;58.16
21594;BME280;10959;51.328;7.322;2022-11-02T10:03:19;99269.78;;;15.62;58.93
21594;BME280;10959;51.328;7.322;2022-11-02T10:05:52;99266.28;;;15.60;59.20
21594;BME280;10959;51.328;7.322;2022-11-02T10:08:33;99267.06;;;15.77;59.12
21594;BME280;10959;51.328;7.322;2022-11-02T10:11:21;99263.03;;;15.84;59.44
21594;BME280;10959;51.328;7.322;2022-11-02T10:13:53;99271.72;;;16.18;58.92
21594;BME280;10959;51.328;7.322;2022-11-02T10:16:23;99277.28;;;16.44;58.57
21594;BME280;10959;51.328;7.322;2022-11-02T10:18:52;99270.19;;;16.68;58.14
21594;BME280;10959;51.328;7.322;2022-11-02T10:21:20;99269.38;;;16.81;57.90
21594;BME280;10959;51.328;7.322;2022-11-02T10:23:52;99288.31;;;16.82;57.74
21594;BME280;10959;51.328;7.322;2022-11-02T10:26:22;99281.41;;;16.91;57.32
21594;BME280;10959;51.328;7.322;2022-11-02T10:28:55;99279.69;;;17.03;56.86
21594;BME280;10959;51.328;7.322;2022-11-02T10:31:26;99287.94;;;17.01;56.75
21594;BME280;10959;51.328;7.322;2022-11-02T10:33:56;99303.44;;;17.14;56.24
21594;BME280;10959;51.328;7.322;2022-11-02T10:36:36;99294.50;;;17.12;55.25
21594;BME280;10959;51.328;7.322;2022-11-02T10:39:15;99288.00;;;17.40;55.76
21594;BME280;10959;51.328;7.322;2022-11-02T10:42:01;99288.84;;;17.15;51.93
21594;BME280;10959;51.328;7.322;2022-11-02T10:44:40;99281.03;;;17.36;53.49
21594;BME280;10959;51.328;7.322;2022-11-02T10:47:14;99278.19;;;17.63;53.91
21594;BME280;10959;51.328;7.322;2022-11-02T10:49:54;99285.16;;;17.80;53.77
21594;BME280;10959;51.328;7.322;2022-11-02T10:52:23;99277.09;;;18.04;53.07
21594;BME280;10959;51.328;7.322;2022-11-02T10:54:52;99278.94;;;18.17;52.55
21594;BME280;10959;51.328;7.322;2022-11-02T10:57:22;99273.09;;;18.34;52.02
21594;BME280;10959;51.328;7.322;2022-11-02T11:00:20;99281.44;;;18.20;52.29
21594;BME280;10959;51.328;7.322;2022-11-02T11:03:01;99285.63;;;18.37;52.05
21594;BME280;10959;51.328;7.322;2022-11-02T11:05:28;99289.13;;;18.63;51.64
21594;BME280;10959;51.328;7.322;2022-11-02T11:07:55;99286.03;;;18.80;50.80
21594;BME280;10959;51.328;7.322;2022-11-02T11:10:23;99286.06;;;18.92;50.58
21594;BME280;10959;51.328;7.322;2022-11-02T11:12:50;99295.78;;;18.96;50.95
21594;BME280;10959;51.328;7.322;2022-11-02T11:15:21;99303.88;;;18.85;50.20
21594;BME280;10959;51.328;7.322;2022-11-02T11:17:49;99295.16;;;18.92;48.50
21594;BME280;10959;51.328;7.322;2022-11-02T11:20:30;99303.88;;;18.85;48.54
21594;BME280;10959;51.328;7.322;2022-11-02T11:23:08;99301.72;;;18.90;49.95
21594;BME280;10959;51.328;7.322;2022-11-02T11:25:36;99302.50;;;19.03;49.24
21594;BME280;10959;51.328;7.322;2022-11-02T11:28:20;99302.03;;;18.85;47.17
21594;BME280;10959;51.328;7.322;2022-11-02T11:30:49;99306.69;;;18.96;48.46
21594;BME280;10959;51.328;7.322;2022-11-02T11:33:26;99308.03;;;18.90;49.38
21594;BME280;10959;51.328;7.322;2022-11-02T11:35:52;99315.94;;;19.06;49.14
21594;BME280;10959;51.328;7.322;2022-11-02T11:38:21;99310.50;;;19.17;48.84
21594;BME280;10959;51.328;7.322;2022-11-02T11:40:52;99305.31;;;19.26;49.46
21594;BME280;10959;51.328;7.322;2022-11-02T11:43:21;99298.38;;;19.33;47.98
21594;BME280;10959;51.328;7.322;2022-11-02T11:45:55;99297.13;;;19.26;47.70
21594;BME280;10959;51.328;7.322;2022-11-02T11:48:31;99301.88;;;19.35;49.01
21594;BME280;10959;51.328;7.322;2022-11-02T11:51:00;99303.16;;;19.54;48.30
21594;BME280;10959;51.328;7.322;2022-11-02T11:53:28;99303.91;;;19.56;46.62
21594;BME280;10959;51.328;7.322;2022-11-02T11:55:56;99311.59;;;19.62;46.48
21594;BME280;10959;51.328;7.322;2022-11-02T11:58:25;99299.19;;;19.46;44.29
21594;BME280;10959;51.328;7.322;2022-11-02T12:01:04;99311.31;;;19.31;47.26
21594;BME280;10959;51.328;7.322;2022-11-02T12:03:32;99312.13;;;19.67;46.80
21594;BME280;10959;51.328;7.322;2022-11-02T12:06:06;99299.19;;;19.69;47.33
21594;BME280;10959;51.328;7.322;2022-11-02T12:08:47;99308.66;;;19.65;46.21
21594;BME280;10959;51.328;7.322;2022-11-02T12:11:25;99302.16;;;19.55;46.99
21594;BME280;10959;51.328;7.322;2022-11-02T12:14:07;99311.94;;;19.46;46.34
21594;BME280;10959;51.328;7.322;2022-11-02T12:16:50;99301.78;;;19.48;47.46
21594;BME280;10959;51.328;7.322;2022-11-02T12:19:30;99307.63;;;19.55;47.67
21594;BME280;10959;51.328;7.322;2022-11-02T12:22:08;99304.16;;;19.52;47.64
21594;BME280;10959;51.328;7.322;2022-11-02T12:24:52;99299.63;;;19.40;47.09
21594;BME280;10959;51.328;7.322;2022-11-02T12:27:34;99292.91;;;19.33;48.22
21594;BME280;10959;51.328;7.322;2022-11-02T12:30:14;99287.22;;;19.36;48.52
21594;BME280;10959;51.328;7.322;2022-11-02T12:33:17;99284.00;;;19.31;49.06
21594;BME280;10959;51.328;7.322;2022-11-02T12:36:09;99277.78;;;19.40;49.04
21594;BME280;10959;51.328;7.322;2022-11-02T12:38:51;99275.47;;;19.58;48.55
21594;BME280;10959;51.328;7.322;2022-11-02T12:41:29;99286.25;;;19.48;47.24
21594;BME280;10959;51.328;7.322;2022-11-02T12:44:09;99275.84;;;19.54;46.89
21594;BME280;10959;51.328;7.322;2022-11-02T12:46:43;99280.53;;;19.51;45.57
21594;BME280;10959;51.328;7.322;2022-11-02T12:49:25;99279.81;;;19.03;45.71
21594;BME280;10959;51.328;7.322;2022-11-02T12:52:01;99285.56;;;18.87;47.44
21594;BME280;10959;51.328;7.322;2022-11-02T12:54:34;99292.88;;;18.62;45.45
21594;BME280;10959;51.328;7.322;2022-11-02T12:57:02;99294.91;;;18.34;46.16
21594;BME280;10959;51.328;7.322;2022-11-02T12:59:32;99299.31;;;18.24;47.88
21594;BME280;10959;51.328;7.322;2022-11-02T13:02:03;99287.75;;;18.20;48.32
21594;BME280;10959;51.328;7.322;2022-11-02T13:04:36;99279.91;;;18.16;47.94
21594;BME280;10959;51.328;7.322;2022-11-02T13:07:09;99286.34;;;18.14;47.10
21594;BME280;10959;51.328;7.322;2022-11-02T13:09:38;99281.13;;;18.11;48.39
21594;BME280;10959;51.328;7.322;2022-11-02T13:12:08;99269.44;;;18.22;49.79
21594;BME280;10959;51.328;7.322;2022-11-02T13:14:39;99279.22;;;18.38;49.51
21594;BME280;10959;51.328;7.322;2022-11-02T13:17:11;99278.31;;;18.37;48.33